Time;durP1;ratioP1;P1;durP2;ratioP2;P2;SDS_P1;SDS_P2;PMS_P1;PMS_P2;Temp;Humidity;BMP_temperature;BMP_pressure;BME280_temperature;BME280_humidity;BME280_pressure;Samples;Min_cycle;Max_cycle;Signal;HPM_P1;HPM_P2
2022/03/14 00:02:21;;;;;;;9.70;5.43;;;4.10;51.50;;;;;;5069898;28;20235;-78
2022/03/14 00:04:51;;;;;;;8.47;5.83;;;4.10;51.40;;;;;;5072309;28;20233;-78
2022/03/14 00:07:18;;;;;;;8.27;5.60;;;4.00;51.20;;;;;;5070707;28;20707;-78
2022/03/14 00:09:46;;;;;;;9.40;5.87;;;4.00;51.80;;;;;;5072173;28;20284;-78
2022/03/14 00:12:25;;;;;;;8.20;5.50;;;4.00;51.50;;;;;;5072589;28;20221;-78
2022/03/14 00:14:56;;;;;;;10.30;5.50;;;3.90;51.80;;;;;;5070012;28;20644;-78
2022/03/14 00:17:25;;;;;;;9.37;6.13;;;3.90;51.70;;;;;;5071827;28;20302;-79
2022/03/14 00:19:52;;;;;;;8.30;5.90;;;3.90;51.70;;;;;;5071494;28;20231;-80
2022/03/14 00:22:22;;;;;;;8.13;5.30;;;3.90;51.70;;;;;;5070764;28;20236;-80
2022/03/14 00:24:49;;;;;;;7.23;5.20;;;3.80;51.80;;;;;;5072265;28;20230;-80
2022/03/14 00:27:16;;;;;;;7.17;5.23;;;3.80;51.90;;;;;;5070963;28;20223;-81
2022/03/14 00:29:43;;;;;;;8.00;5.60;;;3.80;51.90;;;;;;5072198;28;20747;-81
2022/03/14 00:32:09;;;;;;;7.73;5.00;;;3.80;51.90;;;;;;5070394;28;20249;-81
2022/03/14 00:34:38;;;;;;;7.13;5.23;;;3.80;51.80;;;;;;5072957;28;20436;-80
2022/03/14 00:37:05;;;;;;;9.00;5.60;;;3.80;51.90;;;;;;5069282;28;20238;-80
2022/03/14 00:39:32;;;;;;;7.70;5.13;;;3.80;51.80;;;;;;5069679;28;20729;-80
2022/03/14 00:41:59;;;;;;;8.67;5.30;;;3.80;51.80;;;;;;5069953;28;20241;-81
2022/03/14 00:44:25;;;;;;;7.73;5.60;;;3.80;51.90;;;;;;5073106;28;20230;-82
2022/03/14 00:46:52;;;;;;;8.77;5.97;;;3.80;51.90;;;;;;5072777;28;20237;-80
2022/03/14 00:49:19;;;;;;;9.73;5.40;;;3.70;51.60;;;;;;5074497;28;20733;-81
2022/03/14 00:51:47;;;;;;;9.00;5.57;;;3.70;51.90;;;;;;5073064;28;20257;-82
2022/03/14 00:54:14;;;;;;;8.43;5.70;;;3.70;52.10;;;;;;5069323;28;20232;-82
2022/03/14 00:56:40;;;;;;;8.67;5.30;;;3.70;52.10;;;;;;5069867;28;20258;-81
2022/03/14 00:59:07;;;;;;;8.10;5.07;;;3.70;52.10;;;;;;5071687;28;20225;-82
2022/03/14 01:01:34;;;;;;;9.53;5.37;;;3.70;52.20;;;;;;5071966;28;20242;-83
2022/03/14 01:04:00;;;;;;;7.87;5.43;;;3.70;52.20;;;;;;5074298;28;20234;-80
2022/03/14 01:06:27;;;;;;;10.57;5.43;;;3.70;52.50;;;;;;5074147;28;20233;-81
2022/03/14 01:08:55;;;;;;;8.30;5.90;;;3.70;52.40;;;;;;5068240;28;20557;-80
2022/03/14 01:11:22;;;;;;;9.53;5.67;;;3.60;52.30;;;;;;5069069;28;20362;-80
2022/03/14 01:13:49;;;;;;;8.20;5.40;;;3.60;52.20;;;;;;5068720;28;20290;-79
2022/03/14 01:16:15;;;;;;;8.20;5.37;;;3.60;52.30;;;;;;5067335;28;20707;-81
2022/03/14 01:18:42;;;;;;;6.87;5.40;;;3.50;52.20;;;;;;5079638;28;20230;-81
2022/03/14 01:21:09;;;;;;;9.07;5.40;;;3.50;52.40;;;;;;5069016;28;20309;-81
2022/03/14 01:23:36;;;;;;;8.83;5.87;;;3.50;52.50;;;;;;5088189;28;20278;-81
2022/03/14 01:26:06;;;;;;;9.20;5.60;;;3.40;52.50;;;;;;5076115;28;20224;-82
2022/03/14 01:28:33;;;;;;;8.97;5.33;;;3.40;52.70;;;;;;5072320;28;20282;-82
2022/03/14 01:31:00;;;;;;;7.97;5.23;;;3.40;52.70;;;;;;5070270;28;20228;-81
2022/03/14 01:33:27;;;;;;;11.23;5.87;;;3.40;52.60;;;;;;5068657;28;20222;-82
2022/03/14 01:35:53;;;;;;;8.70;5.47;;;3.30;53.00;;;;;;5071065;28;20246;-82
2022/03/14 01:38:20;;;;;;;8.20;5.20;;;3.30;53.20;;;;;;5068494;28;20240;-82
2022/03/14 01:40:47;;;;;;;7.70;5.47;;;3.30;52.90;;;;;;5067876;28;20245;-81
2022/03/14 01:43:16;;;;;;;8.27;5.57;;;3.20;52.90;;;;;;5076664;28;20239;-81
2022/03/14 01:45:45;;;;;;;8.87;5.63;;;3.20;53.30;;;;;;5070920;28;20265;-81
2022/03/14 01:48:11;;;;;;;8.33;5.53;;;3.20;53.30;;;;;;5067550;28;20714;-81
2022/03/14 01:50:38;;;;;;;7.23;5.60;;;3.20;53.20;;;;;;5071202;28;20892;-81
2022/03/14 01:53:05;;;;;;;8.10;5.57;;;3.20;53.00;;;;;;5078651;28;20225;-82
2022/03/14 01:55:32;;;;;;;10.47;5.87;;;3.20;53.00;;;;;;5068626;28;20238;-81
2022/03/14 01:57:59;;;;;;;9.63;5.70;;;3.20;53.40;;;;;;5070173;28;20228;-81
2022/03/14 02:00:28;;;;;;;8.57;5.50;;;3.10;53.30;;;;;;5067516;28;20262;-81
2022/03/14 02:02:56;;;;;;;10.93;5.83;;;3.10;53.20;;;;;;5061351;28;20289;-82
2022/03/14 02:05:22;;;;;;;8.23;6.00;;;3.10;53.20;;;;;;5067822;28;20244;-81
2022/03/14 02:07:49;;;;;;;9.20;6.20;;;3.10;53.20;;;;;;5084584;28;20242;-82
2022/03/14 02:10:16;;;;;;;9.90;5.90;;;3.10;53.20;;;;;;5073905;28;20972;-82
2022/03/14 02:12:44;;;;;;;8.47;5.90;;;3.10;53.00;;;;;;5082098;28;20249;-81
2022/03/14 02:15:11;;;;;;;9.40;6.37;;;3.10;53.30;;;;;;5071579;28;20251;-81
2022/03/14 02:17:39;;;;;;;10.20;6.13;;;3.10;53.10;;;;;;5071395;28;20256;-81
2022/03/14 02:20:08;;;;;;;10.03;5.80;;;3.20;53.30;;;;;;5071963;28;20249;-81
2022/03/14 02:22:35;;;;;;;9.70;6.23;;;3.10;53.30;;;;;;5070269;28;20241;-81
2022/03/14 02:25:02;;;;;;;10.10;6.10;;;3.10;53.80;;;;;;5070866;28;20230;-81
2022/03/14 02:27:29;;;;;;;8.83;6.20;;;3.10;53.60;;;;;;5068543;28;20378;-81
2022/03/14 02:29:57;;;;;;;9.40;5.97;;;3.10;53.60;;;;;;5074810;28;20232;-81
2022/03/14 02:32:23;;;;;;;9.27;6.27;;;3.10;53.60;;;;;;5071594;28;20232;-81
2022/03/14 02:34:50;;;;;;;9.43;6.10;;;3.00;53.40;;;;;;5071321;28;20257;-81
2022/03/14 02:37:18;;;;;;;8.70;5.83;;;3.00;53.30;;;;;;5072901;28;20237;-81
2022/03/14 02:39:47;;;;;;;10.57;6.03;;;3.00;53.30;;;;;;5073369;28;20229;-81
2022/03/14 02:42:14;;;;;;;10.53;6.37;;;2.90;53.80;;;;;;5071545;28;20254;-81
2022/03/14 02:44:42;;;;;;;11.10;6.37;;;2.90;53.60;;;;;;5073232;28;20242;-81
2022/03/14 02:47:09;;;;;;;9.50;5.93;;;2.90;53.50;;;;;;5079312;28;20333;-80
2022/03/14 02:49:35;;;;;;;8.93;5.83;;;2.90;53.60;;;;;;5084100;28;20248;-81
2022/03/14 02:52:02;;;;;;;10.33;6.27;;;2.80;53.60;;;;;;5074636;28;20225;-81
2022/03/14 02:54:30;;;;;;;11.70;6.30;;;2.80;53.70;;;;;;5071548;28;20715;-80
2022/03/14 02:56:57;;;;;;;8.87;6.20;;;2.80;54.00;;;;;;5074142;28;20291;-81
2022/03/14 02:59:24;;;;;;;8.83;5.90;;;2.70;53.80;;;;;;5070840;28;20272;-80
2022/03/14 03:01:51;;;;;;;11.03;6.10;;;2.70;53.90;;;;;;5072906;28;20232;-80
2022/03/14 03:04:17;;;;;;;11.13;6.37;;;2.60;53.90;;;;;;5072060;28;20226;-80
2022/03/14 03:06:45;;;;;;;10.13;6.23;;;2.60;54.40;;;;;;5073473;28;20595;-81
2022/03/14 03:09:12;;;;;;;7.70;6.20;;;2.60;54.60;;;;;;5071106;28;20230;-81
2022/03/14 03:11:41;;;;;;;10.47;6.17;;;2.50;54.40;;;;;;5071151;28;20689;-82
2022/03/14 03:14:08;;;;;;;9.90;6.47;;;2.50;54.50;;;;;;5075443;28;20740;-82
2022/03/14 03:16:35;;;;;;;9.50;6.30;;;2.50;54.50;;;;;;5073666;28;20219;-82
2022/03/14 03:19:01;;;;;;;10.27;6.87;;;2.40;54.60;;;;;;5072954;28;20235;-80
2022/03/14 03:21:28;;;;;;;10.33;6.20;;;2.40;54.70;;;;;;5071528;28;20227;-81
2022/03/14 03:23:55;;;;;;;8.90;6.07;;;2.30;55.20;;;;;;5066825;28;20727;-81
2022/03/14 03:26:22;;;;;;;10.73;6.00;;;2.40;54.90;;;;;;5071741;28;20234;-81
2022/03/14 03:28:50;;;;;;;10.93;7.30;;;2.30;54.60;;;;;;5072209;28;21926;-81
2022/03/14 03:31:18;;;;;;;10.40;6.63;;;2.30;54.70;;;;;;5072350;28;20226;-81
2022/03/14 03:33:47;;;;;;;9.50;5.87;;;2.30;55.20;;;;;;5080609;28;20307;-81
2022/03/14 03:36:14;;;;;;;10.03;6.40;;;2.20;55.10;;;;;;5074592;28;20223;-81
2022/03/14 03:38:40;;;;;;;10.50;6.10;;;2.20;55.00;;;;;;5074687;28;20224;-81
2022/03/14 03:41:08;;;;;;;10.57;6.40;;;2.20;54.80;;;;;;5083650;28;20223;-81
2022/03/14 03:43:35;;;;;;;9.30;6.63;;;2.20;55.00;;;;;;5080917;28;20228;-81
2022/03/14 03:46:03;;;;;;;9.40;6.40;;;2.20;54.90;;;;;;5077572;28;20247;-82
2022/03/14 03:48:30;;;;;;;10.43;6.57;;;2.20;54.90;;;;;;5069434;28;20228;-82
2022/03/14 03:50:57;;;;;;;10.47;6.47;;;2.10;54.90;;;;;;5068738;28;20311;-82
2022/03/14 03:53:23;;;;;;;10.77;6.53;;;2.10;55.10;;;;;;5072754;28;20253;-82
2022/03/14 03:55:50;;;;;;;11.63;6.53;;;2.00;55.10;;;;;;5080882;28;20233;-82
2022/03/14 03:58:17;;;;;;;9.57;6.80;;;2.00;55.40;;;;;;5057975;28;20226;-81
2022/03/14 04:00:45;;;;;;;11.67;6.23;;;2.00;55.60;;;;;;5072708;28;20630;-81
2022/03/14 04:03:13;;;;;;;9.57;6.83;;;1.90;55.60;;;;;;5070209;28;20231;-81
2022/03/14 04:05:41;;;;;;;11.50;6.80;;;1.90;55.50;;;;;;5070359;28;20237;-82
2022/03/14 04:08:11;;;;;;;10.40;7.00;;;1.80;55.70;;;;;;5067124;28;20620;-82
2022/03/14 04:10:38;;;;;;;11.67;7.67;;;1.80;55.60;;;;;;5070174;28;20825;-83
2022/03/14 04:13:06;;;;;;;13.97;7.10;;;1.70;55.70;;;;;;5069400;28;20228;-83
2022/03/14 04:15:40;;;;;;;11.97;7.27;;;1.70;55.70;;;;;;5073271;28;20692;-83
2022/03/14 04:18:07;;;;;;;10.70;6.70;;;1.70;55.80;;;;;;5069777;28;20226;-81
2022/03/14 04:20:36;;;;;;;9.63;6.47;;;1.60;56.00;;;;;;5072041;28;20227;-81
2022/03/14 04:23:03;;;;;;;9.90;6.87;;;1.50;56.00;;;;;;5071285;28;20234;-82
2022/03/14 04:25:30;;;;;;;10.70;6.70;;;1.50;56.00;;;;;;5068957;28;20836;-82
2022/03/14 04:27:56;;;;;;;9.97;6.60;;;1.50;56.20;;;;;;5069698;28;20223;-82
2022/03/14 04:30:23;;;;;;;11.20;6.90;;;1.40;56.30;;;;;;5070949;28;20604;-82
2022/03/14 04:32:50;;;;;;;11.00;7.07;;;1.40;57.20;;;;;;5072826;28;20243;-81
2022/03/14 04:35:17;;;;;;;12.70;7.90;;;1.40;56.40;;;;;;5072582;28;20230;-82
2022/03/14 04:37:45;;;;;;;13.90;7.27;;;1.30;56.50;;;;;;5073949;28;20318;-81
2022/03/14 04:40:13;;;;;;;11.93;7.87;;;1.30;56.60;;;;;;5068978;28;20245;-81
2022/03/14 04:42:40;;;;;;;11.33;7.20;;;1.20;56.50;;;;;;5067788;28;20597;-81
2022/03/14 04:45:07;;;;;;;11.70;7.20;;;1.20;56.50;;;;;;5067878;28;20223;-81
2022/03/14 04:47:35;;;;;;;12.60;8.20;;;1.20;56.90;;;;;;5070986;28;20227;-81
2022/03/14 04:50:02;;;;;;;16.13;7.63;;;1.10;56.90;;;;;;5070215;28;20278;-79
2022/03/14 04:52:29;;;;;;;10.80;7.30;;;1.10;57.10;;;;;;5070315;28;20230;-80
2022/03/14 04:54:57;;;;;;;12.63;7.77;;;1.10;57.20;;;;;;5069853;28;20241;-80
2022/03/14 04:57:24;;;;;;;13.20;7.73;;;1.10;57.80;;;;;;5070173;28;20535;-80
2022/03/14 04:59:51;;;;;;;14.83;7.87;;;1.10;57.60;;;;;;5068896;28;20228;-80
2022/03/14 05:02:21;;;;;;;12.20;7.97;;;1.10;57.60;;;;;;5068762;28;20764;-81
2022/03/14 05:04:48;;;;;;;14.10;8.07;;;1.10;57.50;;;;;;5070457;28;20226;-81
2022/03/14 05:07:15;;;;;;;12.13;8.20;;;1.10;57.30;;;;;;5070206;28;20230;-82
2022/03/14 05:09:41;;;;;;;11.77;7.83;;;1.00;57.30;;;;;;5076983;28;20781;-83
2022/03/14 05:12:11;;;;;;;11.83;7.13;;;1.10;57.30;;;;;;5072223;28;20978;-82
2022/03/14 05:14:39;;;;;;;12.27;7.80;;;1.00;57.40;;;;;;5095650;28;20299;-82
2022/03/14 05:17:05;;;;;;;11.77;7.70;;;1.00;57.40;;;;;;5076702;28;20220;-80
2022/03/14 05:19:34;;;;;;;11.80;7.90;;;1.00;57.40;;;;;;5075458;28;20752;-81
2022/03/14 05:22:00;;;;;;;11.57;7.57;;;1.00;58.10;;;;;;5073730;28;20308;-82
2022/03/14 05:24:28;;;;;;;12.13;7.57;;;1.00;57.80;;;;;;5068136;28;20231;-82
2022/03/14 05:26:57;;;;;;;11.23;7.80;;;0.90;57.70;;;;;;5069650;28;20237;-84
2022/03/14 05:29:25;;;;;;;11.43;7.83;;;0.90;57.90;;;;;;5068186;28;20239;-84
2022/03/14 05:31:53;;;;;;;14.33;8.50;;;0.90;57.80;;;;;;5071087;28;20276;-82
2022/03/14 05:34:20;;;;;;;11.87;8.40;;;0.90;58.00;;;;;;5068121;28;20239;-85
2022/03/14 05:36:47;;;;;;;13.80;7.83;;;0.90;58.70;;;;;;5070224;28;20230;-85
2022/03/14 05:39:13;;;;;;;13.23;8.00;;;0.90;59.30;;;;;;5068877;28;20219;-84
2022/03/14 05:41:40;;;;;;;12.77;7.93;;;0.90;58.80;;;;;;5069461;28;20227;-82
2022/03/14 05:44:07;;;;;;;13.33;8.17;;;0.90;58.60;;;;;;5066944;28;20227;-81
2022/03/14 05:46:35;;;;;;;13.80;8.30;;;0.90;58.70;;;;;;5091426;28;20294;-83
2022/03/14 05:49:02;;;;;;;15.20;8.87;;;0.90;58.60;;;;;;5065645;28;20664;-82
2022/03/14 05:51:29;;;;;;;15.20;8.20;;;0.90;58.40;;;;;;5065511;28;20329;-83
2022/03/14 05:53:56;;;;;;;12.83;8.13;;;0.90;58.30;;;;;;5065831;28;20235;-83
2022/03/14 05:56:23;;;;;;;13.00;8.33;;;0.90;58.40;;;;;;5067740;28;20235;-83
2022/03/14 05:58:49;;;;;;;12.53;8.43;;;0.90;58.70;;;;;;5067384;28;20231;-82
2022/03/14 06:01:16;;;;;;;16.13;9.57;;;0.90;58.70;;;;;;5059673;28;20704;-83
2022/03/14 06:03:44;;;;;;;16.10;8.87;;;1.00;58.80;;;;;;5063450;28;20232;-83
2022/03/14 06:06:11;;;;;;;13.77;8.93;;;1.00;58.90;;;;;;5068536;28;20223;-82
2022/03/14 06:08:38;;;;;;;13.73;8.50;;;1.00;58.80;;;;;;5068985;28;20243;-82
2022/03/14 06:11:06;;;;;;;12.83;8.93;;;1.00;58.80;;;;;;5068420;28;20352;-83
2022/03/14 06:13:33;;;;;;;15.33;9.83;;;1.10;59.00;;;;;;5066503;28;20236;-80
2022/03/14 06:16:00;;;;;;;13.37;8.50;;;1.20;59.10;;;;;;5064938;28;20222;-80
2022/03/14 06:18:29;;;;;;;13.40;9.17;;;1.30;59.10;;;;;;5070113;28;20230;-80
2022/03/14 06:20:57;;;;;;;14.60;8.87;;;1.50;58.90;;;;;;5067590;28;20219;-79
2022/03/14 06:23:23;;;;;;;16.17;9.30;;;1.60;58.60;;;;;;5064838;28;20691;-83
2022/03/14 06:25:54;;;;;;;13.60;8.70;;;1.70;58.70;;;;;;5066283;28;20237;-82
2022/03/14 06:28:22;;;;;;;13.23;8.73;;;1.70;58.70;;;;;;5065995;28;20236;-81
2022/03/14 06:30:51;;;;;;;18.07;9.60;;;1.90;58.40;;;;;;5067059;28;20222;-83
2022/03/14 06:33:17;;;;;;;15.70;9.60;;;1.90;58.10;;;;;;5066959;28;20249;-82
2022/03/14 06:35:46;;;;;;;13.17;9.53;;;2.00;58.00;;;;;;5067638;28;20231;-83
2022/03/14 06:38:14;;;;;;;14.30;9.07;;;2.20;57.90;;;;;;5067772;28;20305;-82
2022/03/14 06:40:41;;;;;;;15.17;9.50;;;2.20;57.70;;;;;;5067529;28;20232;-82
2022/03/14 06:43:10;;;;;;;15.13;9.37;;;2.30;57.60;;;;;;5062230;28;20711;-82
2022/03/14 06:45:39;;;;;;;14.50;9.07;;;2.30;57.50;;;;;;5064174;28;20323;-83
2022/03/14 06:48:06;;;;;;;15.87;9.77;;;2.30;57.70;;;;;;5066808;28;20219;-83
2022/03/14 06:50:35;;;;;;;13.00;8.50;;;2.40;57.60;;;;;;5069057;28;20698;-82
2022/03/14 06:53:02;;;;;;;16.23;9.20;;;2.50;57.40;;;;;;5065720;28;20232;-82
2022/03/14 06:55:31;;;;;;;14.77;9.30;;;2.50;57.10;;;;;;5069776;28;20249;-82
2022/03/14 06:57:57;;;;;;;14.87;9.67;;;2.60;57.30;;;;;;5069310;28;20224;-82
2022/03/14 07:00:26;;;;;;;15.97;9.87;;;2.70;56.90;;;;;;5068633;28;20234;-83
2022/03/14 07:02:52;;;;;;;16.97;9.57;;;2.80;57.00;;;;;;5067566;28;20229;-82
2022/03/14 07:05:21;;;;;;;16.57;9.77;;;2.80;57.00;;;;;;5068796;28;20249;-81
2022/03/14 07:07:48;;;;;;;16.97;10.17;;;2.90;56.90;;;;;;5067004;28;20406;-82
2022/03/14 07:10:15;;;;;;;16.50;10.03;;;3.00;56.90;;;;;;5063698;28;20225;-82
2022/03/14 07:12:46;;;;;;;17.00;10.47;;;3.10;56.90;;;;;;5073336;28;20363;-82
2022/03/14 07:15:14;;;;;;;16.73;10.07;;;3.10;56.40;;;;;;5070702;28;20588;-83
2022/03/14 07:17:42;;;;;;;14.60;9.60;;;3.20;56.60;;;;;;5066235;28;20264;-82
2022/03/14 07:20:10;;;;;;;15.33;9.27;;;3.30;56.50;;;;;;5070400;28;20214;-82
2022/03/14 07:22:49;;;;;;;15.67;10.50;;;3.40;56.70;;;;;;5071188;28;20241;-82
2022/03/14 07:25:19;;;;;;;16.37;9.80;;;3.60;57.20;;;;;;5069429;28;20226;-83
2022/03/14 07:27:47;;;;;;;15.73;9.60;;;3.80;56.50;;;;;;5071848;28;20883;-83
2022/03/14 07:30:14;;;;;;;14.07;9.30;;;4.10;56.10;;;;;;5070767;28;20275;-82
2022/03/14 07:32:41;;;;;;;15.17;9.67;;;4.30;55.40;;;;;;5069143;28;20222;-82
2022/03/14 07:35:09;;;;;;;14.30;9.23;;;4.50;55.80;;;;;;5070217;28;20267;-83
2022/03/14 07:37:36;;;;;;;14.73;10.00;;;4.60;53.90;;;;;;5068050;28;20256;-82
2022/03/14 07:40:03;;;;;;;18.00;10.23;;;4.70;54.30;;;;;;5071638;28;20228;-83
2022/03/14 07:42:30;;;;;;;15.73;10.43;;;4.80;54.50;;;;;;5073849;28;20738;-82
2022/03/14 07:44:58;;;;;;;16.90;9.83;;;4.80;54.30;;;;;;5069913;28;20752;-82
2022/03/14 07:47:24;;;;;;;14.27;9.77;;;4.90;53.60;;;;;;5070126;28;20344;-82
2022/03/14 07:49:51;;;;;;;17.73;10.03;;;5.00;54.00;;;;;;5069849;28;20300;-81
2022/03/14 07:52:18;;;;;;;17.00;10.00;;;5.20;53.90;;;;;;5071015;28;20328;-81
2022/03/14 07:54:45;;;;;;;14.07;9.93;;;5.30;53.50;;;;;;5071480;28;20218;-83
2022/03/14 07:57:12;;;;;;;13.60;9.53;;;5.50;53.70;;;;;;5084014;28;20226;-82
2022/03/14 07:59:39;;;;;;;15.77;10.10;;;5.70;53.80;;;;;;5069205;28;20758;-82
2022/03/14 08:02:08;;;;;;;15.33;9.77;;;5.90;53.50;;;;;;5070559;28;20252;-82
2022/03/14 08:04:39;;;;;;;14.50;10.10;;;6.20;52.50;;;;;;5069482;28;20983;-82
2022/03/14 08:07:06;;;;;;;14.93;9.80;;;6.40;52.20;;;;;;5068771;28;20618;-82
2022/03/14 08:09:33;;;;;;;14.90;10.20;;;6.60;52.60;;;;;;5066425;28;20237;-82
2022/03/14 08:12:04;;;;;;;14.53;9.93;;;6.80;52.80;;;;;;5068664;28;20225;-82
2022/03/14 08:14:30;;;;;;;15.60;10.07;;;7.00;53.00;;;;;;5065004;28;20284;-83
2022/03/14 08:16:57;;;;;;;15.37;9.87;;;7.20;51.70;;;;;;5060886;28;20314;-82
2022/03/14 08:19:26;;;;;;;13.60;8.90;;;7.40;51.90;;;;;;5068550;28;20234;-83
2022/03/14 08:21:56;;;;;;;13.40;10.17;;;7.50;50.10;;;;;;5069458;28;20230;-83
2022/03/14 08:24:24;;;;;;;14.13;9.30;;;7.60;49.90;;;;;;5067409;28;20257;-82
2022/03/14 08:26:50;;;;;;;13.47;9.40;;;7.70;50.50;;;;;;5068057;28;20354;-82
2022/03/14 08:29:17;;;;;;;14.83;9.93;;;7.80;50.10;;;;;;5066068;28;20308;-83
2022/03/14 08:31:44;;;;;;;14.07;9.53;;;8.00;49.40;;;;;;5067096;28;20223;-82
2022/03/14 08:34:11;;;;;;;13.67;9.50;;;8.10;49.10;;;;;;5065724;28;20219;-83
2022/03/14 08:36:40;;;;;;;14.03;9.27;;;8.30;49.80;;;;;;5063540;28;20238;-83
2022/03/14 08:39:08;;;;;;;13.27;8.80;;;8.40;49.70;;;;;;5067622;28;20226;-82
2022/03/14 08:41:36;;;;;;;13.40;9.57;;;8.50;49.30;;;;;;5067404;28;20262;-82
2022/03/14 08:44:04;;;;;;;14.80;9.70;;;8.70;47.90;;;;;;5068173;28;20228;-82
2022/03/14 08:46:31;;;;;;;13.20;9.00;;;8.70;47.90;;;;;;5065684;28;20240;-83
2022/03/14 08:48:58;;;;;;;13.57;9.13;;;8.80;48.60;;;;;;5067763;28;20228;-82
2022/03/14 08:51:25;;;;;;;13.87;9.00;;;9.00;49.10;;;;;;5062910;28;20228;-83
2022/03/14 08:53:53;;;;;;;11.13;8.30;;;9.20;49.70;;;;;;5067625;28;20774;-82
2022/03/14 08:56:22;;;;;;;13.13;8.37;;;9.70;49.80;;;;;;5067492;28;20235;-83
2022/03/14 08:58:49;;;;;;;11.50;7.90;;;10.20;48.30;;;;;;5066411;28;20231;-83
2022/03/14 09:01:15;;;;;;;11.63;8.13;;;10.80;48.90;;;;;;5065299;28;20225;-82
2022/03/14 09:03:43;;;;;;;11.03;8.27;;;11.40;47.80;;;;;;5065941;28;20762;-83
2022/03/14 09:06:09;;;;;;;13.53;8.73;;;12.00;46.20;;;;;;5065432;28;20229;-83
2022/03/14 09:08:36;;;;;;;11.07;8.70;;;12.60;46.90;;;;;;5065508;28;20311;-83
2022/03/14 09:11:04;;;;;;;11.30;8.20;;;13.10;45.20;;;;;;5063021;28;20636;-83
2022/03/14 09:13:31;;;;;;;10.13;8.23;;;13.60;45.00;;;;;;5066772;28;20321;-83
2022/03/14 09:15:57;;;;;;;10.40;7.83;;;14.00;44.60;;;;;;5067334;28;20231;-82
2022/03/14 09:18:28;;;;;;;10.10;8.20;;;14.40;43.20;;;;;;5066167;28;20316;-83
2022/03/14 09:20:56;;;;;;;10.60;8.50;;;14.60;42.60;;;;;;5065771;28;20332;-82
2022/03/14 09:23:23;;;;;;;12.63;8.60;;;14.70;42.20;;;;;;5059311;28;20223;-83
2022/03/14 09:25:51;;;;;;;11.93;8.83;;;14.80;41.40;;;;;;5063416;28;20222;-83
2022/03/14 09:28:21;;;;;;;12.20;8.63;;;14.80;41.10;;;;;;5066899;28;20230;-83
2022/03/14 09:30:47;;;;;;;11.87;8.70;;;14.80;41.20;;;;;;5065996;28;20691;-82
2022/03/14 09:33:15;;;;;;;14.27;8.50;;;14.90;41.20;;;;;;5059941;28;20237;-83
2022/03/14 09:35:42;;;;;;;14.27;9.73;;;14.90;42.00;;;;;;5067655;28;20318;-83
2022/03/14 09:38:09;;;;;;;10.37;8.43;;;15.00;41.90;;;;;;5067249;28;20316;-82
2022/03/14 09:40:36;;;;;;;12.23;8.50;;;15.10;41.80;;;;;;5066787;28;20249;-83
2022/03/14 09:43:04;;;;;;;11.83;9.03;;;15.30;42.10;;;;;;5067871;28;20229;-83
2022/03/14 09:45:35;;;;;;;12.40;9.50;;;15.50;41.40;;;;;;5066347;28;20234;-82
2022/03/14 09:48:04;;;;;;;11.53;9.20;;;15.70;41.60;;;;;;5067103;28;20242;-82
2022/03/14 09:50:33;;;;;;;12.90;9.20;;;15.90;41.70;;;;;;5066180;28;20254;-83
2022/03/14 09:53:03;;;;;;;12.53;9.00;;;16.10;41.50;;;;;;5066269;28;20726;-82
2022/03/14 09:55:33;;;;;;;12.27;8.90;;;16.30;41.00;;;;;;5064964;28;20230;-83
2022/03/14 09:58:00;;;;;;;10.97;8.70;;;16.40;40.50;;;;;;5067498;28;20273;-83
2022/03/14 10:00:26;;;;;;;10.40;8.73;;;16.60;41.90;;;;;;5062459;28;20251;-84
2022/03/14 10:02:54;;;;;;;13.63;8.60;;;16.70;41.20;;;;;;5065194;28;20233;-82
2022/03/14 10:05:21;;;;;;;11.67;8.97;;;16.90;41.10;;;;;;5061609;28;20231;-82
2022/03/14 10:07:48;;;;;;;12.00;9.20;;;17.10;41.00;;;;;;5068021;28;20953;-82
2022/03/14 10:10:17;;;;;;;12.17;8.67;;;17.30;41.40;;;;;;5057373;28;20229;-83
2022/03/14 10:12:52;;;;;;;10.87;8.93;;;17.30;41.60;;;;;;5067736;28;20624;-83
2022/03/14 10:15:21;;;;;;;11.80;8.50;;;17.30;41.70;;;;;;5064136;28;20214;-83
2022/03/14 10:17:47;;;;;;;12.33;9.47;;;17.40;41.40;;;;;;5055072;28;20254;-83
2022/03/14 10:20:17;;;;;;;12.30;8.70;;;17.30;41.00;;;;;;5063801;28;20233;-83
2022/03/14 10:22:44;;;;;;;10.47;8.63;;;17.20;41.30;;;;;;5066483;28;20231;-83
2022/03/14 10:25:13;;;;;;;12.20;8.87;;;17.10;41.60;;;;;;5066342;28;20227;-82
2022/03/14 10:27:45;;;;;;;9.87;8.13;;;17.00;41.90;;;;;;5066901;28;20227;-83
2022/03/14 10:30:24;;;;;;;9.97;8.60;;;17.00;42.10;;;;;;5062130;28;20341;-81
2022/03/14 10:32:57;;;;;;;14.30;9.25;;;17.00;42.10;;;;;;5057239;28;20761;-83
2022/03/14 10:35:25;;;;;;;8.97;7.90;;;17.00;42.50;;;;;;5065033;28;20847;-82
2022/03/14 10:37:59;;;;;;;13.70;9.37;;;17.10;42.30;;;;;;5068431;28;20236;-83
2022/03/14 10:40:30;;;;;;;11.13;8.32;;;17.10;42.00;;;;;;5061273;28;20220;-83
2022/03/14 10:42:57;;;;;;;12.47;9.00;;;17.00;41.90;;;;;;5067893;28;20288;-82
2022/03/14 10:45:24;;;;;;;10.63;8.33;;;16.80;42.30;;;;;;5067535;28;20265;-82
2022/03/14 10:47:56;;;;;;;12.27;8.43;;;16.50;42.80;;;;;;5066564;28;20243;-81
2022/03/14 10:50:34;;;;;;;10.90;8.10;;;16.20;43.00;;;;;;5069929;28;20245;-82
2022/03/14 10:53:07;;;;;;;11.23;8.50;;;15.80;43.50;;;;;;5072520;28;20293;-81
2022/03/14 10:55:38;;;;;;;11.77;8.43;;;15.50;44.50;;;;;;5071825;28;20801;-82
2022/03/14 10:58:12;;;;;;;11.80;8.70;;;15.20;44.60;;;;;;5072594;28;20405;-83
2022/03/14 11:00:50;;;;;;;14.13;9.20;;;14.90;44.70;;;;;;5072420;28;20233;-82
2022/03/14 11:03:25;;;;;;;12.50;8.97;;;14.60;45.10;;;;;;5071985;28;20226;-82
2022/03/14 11:05:54;;;;;;;12.70;9.03;;;14.40;45.70;;;;;;5069538;28;20234;-82
2022/03/14 11:08:29;;;;;;;11.93;8.50;;;14.20;46.00;;;;;;5070158;28;20231;-83
2022/03/14 11:10:57;;;;;;;11.37;8.23;;;14.00;46.30;;;;;;5071050;28;20217;-82
2022/03/14 11:13:24;;;;;;;11.90;8.27;;;13.80;46.90;;;;;;5072047;28;20231;-82
2022/03/14 11:15:51;;;;;;;11.77;8.87;;;13.60;47.30;;;;;;5072211;28;20231;-82
2022/03/14 11:18:19;;;;;;;11.67;8.07;;;13.40;47.30;;;;;;5070947;28;20300;-82
2022/03/14 11:20:46;;;;;;;11.23;8.57;;;13.30;47.80;;;;;;5072154;28;20232;-81
2022/03/14 11:23:15;;;;;;;12.27;8.13;;;13.10;48.60;;;;;;5068518;28;20229;-82
2022/03/14 11:25:44;;;;;;;13.70;8.53;;;12.90;49.40;;;;;;5065982;28;20234;-82
2022/03/14 11:28:16;;;;;;;12.07;8.10;;;12.80;49.40;;;;;;5072447;28;20755;-82
2022/03/14 11:30:48;;;;;;;11.23;8.50;;;12.60;49.70;;;;;;5072297;28;20220;-82
2022/03/14 11:33:15;;;;;;;10.47;7.90;;;12.60;50.10;;;;;;5068355;28;20226;-82
2022/03/14 11:35:43;;;;;;;11.80;8.03;;;12.40;50.40;;;;;;5068877;28;20228;-82
2022/03/14 11:38:11;;;;;;;11.63;8.23;;;12.30;50.80;;;;;;5067125;28;20226;-82
2022/03/14 11:40:39;;;;;;;11.60;8.20;;;12.20;51.00;;;;;;5070257;28;20227;-82
2022/03/14 11:43:06;;;;;;;13.40;9.10;;;12.10;51.50;;;;;;5073712;28;20606;-83
2022/03/14 11:45:34;;;;;;;11.73;8.60;;;12.10;51.60;;;;;;5073863;28;20529;-82
2022/03/14 11:48:04;;;;;;;17.00;10.23;;;12.00;51.70;;;;;;5074428;28;20331;-82
2022/03/14 11:50:42;;;;;;;12.43;8.53;;;11.90;52.30;;;;;;5072900;28;20225;-82
2022/03/14 11:53:08;;;;;;;11.90;7.97;;;11.80;52.80;;;;;;5066758;28;20315;-82
2022/03/14 11:55:35;;;;;;;11.70;8.27;;;11.80;52.90;;;;;;5072700;28;20233;-82
2022/03/14 11:58:28;;;;;;;11.03;7.90;;;11.70;53.90;;;;;;5071202;28;20236;-82
2022/03/14 12:00:55;;;;;;;12.10;8.10;;;11.70;54.00;;;;;;5072884;28;20238;-82
2022/03/14 12:03:38;;;;;;;11.27;8.43;;;11.70;53.80;;;;;;5071932;28;20223;-82
2022/03/14 12:06:05;;;;;;;11.13;8.13;;;11.80;54.50;;;;;;5073676;28;20249;-82
2022/03/14 12:09:00;;;;;;;10.90;7.97;;;11.80;54.10;;;;;;5073935;28;20231;-82
2022/03/14 12:11:42;;;;;;;11.10;8.47;;;12.00;54.40;;;;;;5072684;28;20242;-82
2022/03/14 12:14:34;;;;;;;10.47;8.07;;;12.10;55.10;;;;;;5071041;28;20234;-83
2022/03/14 12:17:07;;;;;;;13.10;8.20;;;12.20;54.50;;;;;;5065032;28;20224;-82
2022/03/14 12:19:41;;;;;;;10.20;7.93;;;12.40;54.50;;;;;;5067358;28;20261;-82
2022/03/14 12:22:12;;;;;;;9.67;8.07;;;12.50;54.40;;;;;;5072987;28;20380;-82
2022/03/14 12:24:49;;;;;;;10.33;7.83;;;12.70;54.30;;;;;;5072052;28;20227;-82
2022/03/14 12:27:21;;;;;;;13.07;8.00;;;12.90;55.10;;;;;;5070648;28;20240;-82
2022/03/14 12:29:50;;;;;;;10.87;8.17;;;13.10;55.20;;;;;;5070724;28;20268;-83
2022/03/14 12:32:25;;;;;;;13.80;8.50;;;13.30;55.40;;;;;;5071128;28;20230;-81
2022/03/14 12:35:07;;;;;;;9.97;8.23;;;13.30;55.30;;;;;;5069359;28;20227;-83
2022/03/14 12:37:43;;;;;;;11.70;8.10;;;13.40;55.10;;;;;;5073307;28;20617;-82
2022/03/14 12:40:32;;;;;;;10.83;8.37;;;13.40;55.00;;;;;;5057992;28;20235;-82
2022/03/14 12:43:27;;;;;;;11.37;8.73;;;13.30;55.20;;;;;;5061954;28;20298;-82
2022/03/14 12:45:57;;;;;;;13.17;8.13;;;13.30;55.50;;;;;;5066413;28;20269;-83
2022/03/14 12:48:25;;;;;;;13.57;9.27;;;13.30;55.50;;;;;;5069056;28;20752;-82
2022/03/14 12:50:57;;;;;;;13.77;8.07;;;13.30;55.70;;;;;;5071951;28;20233;-83
2022/03/14 12:53:50;;;;;;;9.67;8.33;;;13.20;56.50;;;;;;5068911;28;20347;-83